sensor_id;sensor_type;location;lat;lon;timestamp;pressure;altitude;pressure_sealevel;temperature;humidity
81704;BME280;71117;52.352;4.808;2023-10-08T00:01:36;102365.41;;;20.34;76.26
81704;BME280;71117;52.352;4.808;2023-10-08T00:04:07;102372.53;;;20.19;76.87
81704;BME280;71117;52.352;4.808;2023-10-08T00:06:33;102354.66;;;20.30;76.47
81704;BME280;71117;52.352;4.808;2023-10-08T00:08:58;102359.09;;;20.05;77.09
81704;BME280;71117;52.352;4.808;2023-10-08T00:11:35;102358.22;;;20.20;76.88
81704;BME280;71117;52.352;4.808;2023-10-08T00:14:02;102361.78;;;20.03;77.34
81704;BME280;71117;52.352;4.808;2023-10-08T00:16:30;102361.81;;;20.19;77.29
81704;BME280;71117;52.352;4.808;2023-10-08T00:18:59;102363.59;;;20.17;77.12
81704;BME280;71117;52.352;4.808;2023-10-08T00:21:25;102350.19;;;20.15;77.16
81704;BME280;71117;52.352;4.808;2023-10-08T00:23:53;102350.19;;;20.18;77.18
81704;BME280;71117;52.352;4.808;2023-10-08T00:26:25;102339.44;;;20.12;77.22
81704;BME280;71117;52.352;4.808;2023-10-08T00:29:03;102334.97;;;20.06;77.32
81704;BME280;71117;52.352;4.808;2023-10-08T00:31:32;102331.34;;;19.89;77.78
81704;BME280;71117;52.352;4.808;2023-10-08T00:34:06;102323.31;;;19.95;78.04
81704;BME280;71117;52.352;4.808;2023-10-08T00:36:44;102326.00;;;19.95;77.94
81704;BME280;71117;52.352;4.808;2023-10-08T00:39:11;102334.88;;;19.80;78.49
81704;BME280;71117;52.352;4.808;2023-10-08T00:41:45;102333.97;;;19.74;78.75
81704;BME280;71117;52.352;4.808;2023-10-08T00:44:13;102317.00;;;19.70;78.89
81704;BME280;71117;52.352;4.808;2023-10-08T00:46:49;102316.97;;;19.66;79.02
81704;BME280;71117;52.352;4.808;2023-10-08T00:49:23;102326.78;;;19.61;78.92
81704;BME280;71117;52.352;4.808;2023-10-08T00:51:56;102324.09;;;19.61;78.92
81704;BME280;71117;52.352;4.808;2023-10-08T00:54:38;102324.03;;;19.58;79.15
81704;BME280;71117;52.352;4.808;2023-10-08T00:57:22;102332.00;;;19.39;80.11
81704;BME280;71117;52.352;4.808;2023-10-08T00:59:49;102334.69;;;19.41;79.74
81704;BME280;71117;52.352;4.808;2023-10-08T01:02:25;102332.84;;;19.35;80.10
81704;BME280;71117;52.352;4.808;2023-10-08T01:05:08;102328.41;;;19.31;80.33
81704;BME280;71117;52.352;4.808;2023-10-08T01:07:35;102342.66;;;19.30;80.42
81704;BME280;71117;52.352;4.808;2023-10-08T01:10:00;102354.25;;;19.29;80.34
81704;BME280;71117;52.352;4.808;2023-10-08T01:12:30;102362.28;;;19.26;80.59
81704;BME280;71117;52.352;4.808;2023-10-08T01:15:02;102377.44;;;19.19;80.76
81704;BME280;71117;52.352;4.808;2023-10-08T01:17:46;102366.72;;;19.22;81.10
81704;BME280;71117;52.352;4.808;2023-10-08T01:20:18;102367.63;;;19.24;80.84
81704;BME280;71117;52.352;4.808;2023-10-08T01:23:10;102373.84;;;19.17;80.72
81704;BME280;71117;52.352;4.808;2023-10-08T01:25:41;102377.44;;;19.21;80.69
81704;BME280;71117;52.352;4.808;2023-10-08T01:28:07;102377.41;;;19.18;80.78
81704;BME280;71117;52.352;4.808;2023-10-08T01:30:52;102391.75;;;19.29;80.12
81704;BME280;71117;52.352;4.808;2023-10-08T01:33:23;102398.00;;;19.29;80.38
81704;BME280;71117;52.352;4.808;2023-10-08T01:35:53;102403.41;;;19.33;80.16
81704;BME280;71117;52.352;4.808;2023-10-08T01:38:19;102415.91;;;19.32;80.41
81704;BME280;71117;52.352;4.808;2023-10-08T01:40:51;102417.56;;;19.16;81.20
81704;BME280;71117;52.352;4.808;2023-10-08T01:43:17;102429.13;;;19.12;81.00
81704;BME280;71117;52.352;4.808;2023-10-08T01:45:43;102418.47;;;19.17;80.89
81704;BME280;71117;52.352;4.808;2023-10-08T01:48:13;102419.41;;;19.22;80.71
81704;BME280;71117;52.352;4.808;2023-10-08T01:50:39;102415.81;;;19.21;80.74
81704;BME280;71117;52.352;4.808;2023-10-08T01:53:05;102428.25;;;19.10;80.58
81704;BME280;71117;52.352;4.808;2023-10-08T01:55:36;102396.09;;;19.10;80.57
81704;BME280;71117;52.352;4.808;2023-10-08T01:58:13;102399.72;;;19.18;80.31
81704;BME280;71117;52.352;4.808;2023-10-08T02:00:45;102383.69;;;19.20;79.90
81704;BME280;71117;52.352;4.808;2023-10-08T02:03:12;102418.47;;;19.15;79.98
81704;BME280;71117;52.352;4.808;2023-10-08T02:05:44;102415.78;;;19.14;79.81
81704;BME280;71117;52.352;4.808;2023-10-08T02:08:11;102432.78;;;19.22;79.98
81704;BME280;71117;52.352;4.808;2023-10-08T02:10:38;102408.72;;;19.28;79.29
81704;BME280;71117;52.352;4.808;2023-10-08T02:13:05;102410.53;;;19.31;79.18
81704;BME280;71117;52.352;4.808;2023-10-08T02:15:31;102397.13;;;19.29;79.48
81704;BME280;71117;52.352;4.808;2023-10-08T02:17:56;102409.63;;;19.30;79.24
81704;BME280;71117;52.352;4.808;2023-10-08T02:20:23;102406.91;;;19.19;79.76
81704;BME280;71117;52.352;4.808;2023-10-08T02:22:49;102378.41;;;19.34;79.21
81704;BME280;71117;52.352;4.808;2023-10-08T02:25:15;102356.97;;;19.35;79.17
81704;BME280;71117;52.352;4.808;2023-10-08T02:27:40;102392.72;;;19.39;78.82
81704;BME280;71117;52.352;4.808;2023-10-08T02:30:07;102440.88;;;19.25;79.12
81704;BME280;71117;52.352;4.808;2023-10-08T02:32:34;102420.34;;;19.27;79.44
81704;BME280;71117;52.352;4.808;2023-10-08T02:35:02;102420.38;;;19.33;79.24
81704;BME280;71117;52.352;4.808;2023-10-08T02:37:27;102433.72;;;19.27;79.25
81704;BME280;71117;52.352;4.808;2023-10-08T02:39:55;102398.00;;;19.29;79.36
81704;BME280;71117;52.352;4.808;2023-10-08T02:42:22;102380.97;;;19.17;79.51
81704;BME280;71117;52.352;4.808;2023-10-08T02:44:49;102393.50;;;19.19;79.44
81704;BME280;71117;52.352;4.808;2023-10-08T02:47:16;102406.81;;;19.10;80.00
81704;BME280;71117;52.352;4.808;2023-10-08T02:49:46;102408.66;;;19.19;79.77
81704;BME280;71117;52.352;4.808;2023-10-08T02:52:13;102405.97;;;19.17;79.66
81704;BME280;71117;52.352;4.808;2023-10-08T02:54:41;102402.34;;;19.09;79.85
81704;BME280;71117;52.352;4.808;2023-10-08T02:57:07;102416.69;;;19.19;79.39
81704;BME280;71117;52.352;4.808;2023-10-08T02:59:40;102421.09;;;19.09;80.03
81704;BME280;71117;52.352;4.808;2023-10-08T03:02:14;102412.19;;;19.10;79.99
81704;BME280;71117;52.352;4.808;2023-10-08T03:04:51;102408.66;;;19.17;79.44
81704;BME280;71117;52.352;4.808;2023-10-08T03:07:18;102407.72;;;19.12;80.42
81704;BME280;71117;52.352;4.808;2023-10-08T03:09:50;102419.34;;;19.14;79.91
81704;BME280;71117;52.352;4.808;2023-10-08T03:12:17;102426.03;;;18.66;80.96
81704;BME280;71117;52.352;4.808;2023-10-08T03:14:43;102447.09;;;18.33;80.37
81704;BME280;71117;52.352;4.808;2023-10-08T03:17:28;102486.84;;;18.05;80.81
81704;BME280;71117;52.352;4.808;2023-10-08T03:19:54;102495.38;;;17.78;80.53
81704;BME280;71117;52.352;4.808;2023-10-08T03:22:26;102481.09;;;17.75;79.72
81704;BME280;71117;52.352;4.808;2023-10-08T03:24:59;102478.81;;;17.44;79.96
81704;BME280;71117;52.352;4.808;2023-10-08T03:27:39;102473.53;;;17.46;80.45
81704;BME280;71117;52.352;4.808;2023-10-08T03:30:07;102470.78;;;17.43;80.25
81704;BME280;71117;52.352;4.808;2023-10-08T03:32:39;102472.44;;;17.35;80.60
81704;BME280;71117;52.352;4.808;2023-10-08T03:35:06;102489.00;;;17.12;80.97
81704;BME280;71117;52.352;4.808;2023-10-08T03:37:36;102475.66;;;17.14;80.40
81704;BME280;71117;52.352;4.808;2023-10-08T03:40:16;102480.94;;;17.11;80.82
81704;BME280;71117;52.352;4.808;2023-10-08T03:42:59;102495.97;;;17.06;80.71
81704;BME280;71117;52.352;4.808;2023-10-08T03:45:25;102499.44;;;17.00;79.85
81704;BME280;71117;52.352;4.808;2023-10-08T03:48:09;102539.56;;;17.05;79.64
81704;BME280;71117;52.352;4.808;2023-10-08T03:50:40;102552.00;;;17.04;79.45
81704;BME280;71117;52.352;4.808;2023-10-08T03:53:07;102533.09;;;16.92;79.14
81704;BME280;71117;52.352;4.808;2023-10-08T03:55:40;102543.59;;;16.83;79.65
81704;BME280;71117;52.352;4.808;2023-10-08T03:58:09;102541.81;;;16.83;79.13
81704;BME280;71117;52.352;4.808;2023-10-08T04:00:54;102543.56;;;16.81;79.15
81704;BME280;71117;52.352;4.808;2023-10-08T04:03:40;102529.53;;;16.90;78.96
81704;BME280;71117;52.352;4.808;2023-10-08T04:06:27;102529.53;;;16.90;78.86
81704;BME280;71117;52.352;4.808;2023-10-08T04:09:00;102534.56;;;16.76;78.30
81704;BME280;71117;52.352;4.808;2023-10-08T04:11:35;102535.22;;;16.66;78.86
81704;BME280;71117;52.352;4.808;2023-10-08T04:14:01;102527.94;;;16.56;78.53
81704;BME280;71117;52.352;4.808;2023-10-08T04:16:31;102515.50;;;16.56;78.45
81704;BME280;71117;52.352;4.808;2023-10-08T04:18:58;102506.59;;;16.56;78.89
81704;BME280;71117;52.352;4.808;2023-10-08T04:21:28;102497.66;;;16.54;78.85
81704;BME280;71117;52.352;4.808;2023-10-08T04:23:54;102495.34;;;16.72;78.55
81704;BME280;71117;52.352;4.808;2023-10-08T04:26:23;102500.09;;;16.87;77.89
81704;BME280;71117;52.352;4.808;2023-10-08T04:28:57;102511.66;;;16.86;77.47
81704;BME280;71117;52.352;4.808;2023-10-08T04:31:24;102524.19;;;16.90;77.64
81704;BME280;71117;52.352;4.808;2023-10-08T04:33:53;102549.41;;;16.63;78.56
81704;BME280;71117;52.352;4.808;2023-10-08T04:36:19;102549.41;;;16.62;79.20
81704;BME280;71117;52.352;4.808;2023-10-08T04:38:45;102562.72;;;16.62;78.88
81704;BME280;71117;52.352;4.808;2023-10-08T04:41:15;102558.34;;;16.65;79.24
81704;BME280;71117;52.352;4.808;2023-10-08T04:43:44;102553.91;;;16.66;79.71
81704;BME280;71117;52.352;4.808;2023-10-08T04:46:10;102545.91;;;16.66;79.97
81704;BME280;71117;52.352;4.808;2023-10-08T04:48:47;102538.03;;;16.72;79.54
81704;BME280;71117;52.352;4.808;2023-10-08T04:51:14;102540.63;;;16.69;79.51
81704;BME280;71117;52.352;4.808;2023-10-08T04:53:40;102538.41;;;16.47;80.29
81704;BME280;71117;52.352;4.808;2023-10-08T04:56:10;102550.13;;;16.55;80.11
81704;BME280;71117;52.352;4.808;2023-10-08T04:58:45;102558.22;;;16.61;80.12
81704;BME280;71117;52.352;4.808;2023-10-08T05:01:15;102561.75;;;16.58;80.33
81704;BME280;71117;52.352;4.808;2023-10-08T05:03:45;102573.28;;;16.56;79.86
81704;BME280;71117;52.352;4.808;2023-10-08T05:06:40;102568.66;;;16.49;80.79
81704;BME280;71117;52.352;4.808;2023-10-08T05:09:16;102573.28;;;16.56;80.43
81704;BME280;71117;52.352;4.808;2023-10-08T05:11:45;102563.31;;;16.47;79.99
81704;BME280;71117;52.352;4.808;2023-10-08T05:14:21;102575.00;;;16.55;79.46
81704;BME280;71117;52.352;4.808;2023-10-08T05:19:42;102567.13;;;16.60;79.61
81704;BME280;71117;52.352;4.808;2023-10-08T05:22:26;102557.19;;;16.53;79.56
81704;BME280;71117;52.352;4.808;2023-10-08T05:24:56;102567.06;;;16.57;79.17
81704;BME280;71117;52.352;4.808;2023-10-08T05:27:44;102575.75;;;16.47;79.53
81704;BME280;71117;52.352;4.808;2023-10-08T05:30:15;102587.16;;;16.41;79.18
81704;BME280;71117;52.352;4.808;2023-10-08T05:33:01;102592.50;;;16.41;79.22
81704;BME280;71117;52.352;4.808;2023-10-08T05:35:39;102581.72;;;16.36;78.83
81704;BME280;71117;52.352;4.808;2023-10-08T05:38:15;102578.78;;;16.23;79.04
81704;BME280;71117;52.352;4.808;2023-10-08T05:40:59;102570.78;;;16.23;78.54
81704;BME280;71117;52.352;4.808;2023-10-08T05:43:26;102545.91;;;16.24;78.77
81704;BME280;71117;52.352;4.808;2023-10-08T05:46:11;102553.91;;;16.24;78.83
81704;BME280;71117;52.352;4.808;2023-10-08T05:48:59;102560.16;;;16.24;78.43
81704;BME280;71117;52.352;4.808;2023-10-08T05:51:38;102588.06;;;16.01;79.05
81704;BME280;71117;52.352;4.808;2023-10-08T05:54:31;102594.44;;;16.09;78.72
81704;BME280;71117;52.352;4.808;2023-10-08T05:56:57;102607.91;;;16.15;78.38
81704;BME280;71117;52.352;4.808;2023-10-08T05:59:36;102607.09;;;16.18;78.30
81704;BME280;71117;52.352;4.808;2023-10-08T06:02:21;102609.56;;;16.10;78.87
81704;BME280;71117;52.352;4.808;2023-10-08T06:05:08;102607.63;;;16.03;79.48
81704;BME280;71117;52.352;4.808;2023-10-08T06:07:48;102619.22;;;16.05;79.61
81704;BME280;71117;52.352;4.808;2023-10-08T06:10:24;102618.25;;;16.01;80.08
81704;BME280;71117;52.352;4.808;2023-10-08T06:15:49;102620.81;;;15.97;81.04
81704;BME280;71117;52.352;4.808;2023-10-08T06:18:32;102608.22;;;15.90;80.22
81704;BME280;71117;52.352;4.808;2023-10-08T06:21:03;102604.66;;;15.89;80.23
81704;BME280;71117;52.352;4.808;2023-10-08T06:23:39;102596.09;;;16.04;79.24
81704;BME280;71117;52.352;4.808;2023-10-08T06:26:04;102621.72;;;15.99;79.52
81704;BME280;71117;52.352;4.808;2023-10-08T06:28:37;102629.94;;;16.06;78.93
81704;BME280;71117;52.352;4.808;2023-10-08T06:31:04;102642.16;;;15.98;79.09
81704;BME280;71117;52.352;4.808;2023-10-08T06:33:40;102634.03;;;15.94;78.51
81704;BME280;71117;52.352;4.808;2023-10-08T06:36:06;102630.56;;;15.96;77.77
81704;BME280;71117;52.352;4.808;2023-10-08T06:38:44;102635.13;;;16.00;77.18
81704;BME280;71117;52.352;4.808;2023-10-08T06:41:13;102630.81;;;16.05;77.24
81704;BME280;71117;52.352;4.808;2023-10-08T06:43:42;102635.53;;;16.17;76.95
81704;BME280;71117;52.352;4.808;2023-10-08T06:46:13;102645.22;;;16.15;77.02
81704;BME280;71117;52.352;4.808;2023-10-08T06:48:39;102637.06;;;16.07;76.73
81704;BME280;71117;52.352;4.808;2023-10-08T06:51:08;102633.88;;;16.24;76.21
81704;BME280;71117;52.352;4.808;2023-10-08T06:53:40;102643.06;;;16.36;76.21
81704;BME280;71117;52.352;4.808;2023-10-08T06:56:06;102642.94;;;16.32;75.55
81704;BME280;71117;52.352;4.808;2023-10-08T06:58:32;102646.63;;;16.37;75.79
81704;BME280;71117;52.352;4.808;2023-10-08T07:00:58;102641.28;;;16.37;76.13
81704;BME280;71117;52.352;4.808;2023-10-08T07:03:24;102648.38;;;16.36;75.26
81704;BME280;71117;52.352;4.808;2023-10-08T07:05:51;102654.75;;;16.43;75.09
81704;BME280;71117;52.352;4.808;2023-10-08T07:08:22;102653.03;;;16.45;75.10
81704;BME280;71117;52.352;4.808;2023-10-08T07:10:49;102645.69;;;16.35;75.68
81704;BME280;71117;52.352;4.808;2023-10-08T07:13:16;102648.38;;;16.35;75.17
81704;BME280;71117;52.352;4.808;2023-10-08T07:15:43;102642.31;;;16.44;75.32
81704;BME280;71117;52.352;4.808;2023-10-08T07:18:11;102647.22;;;16.63;73.81
81704;BME280;71117;52.352;4.808;2023-10-08T07:20:39;102647.31;;;16.67;73.66
81704;BME280;71117;52.352;4.808;2023-10-08T07:23:07;102648.56;;;16.44;73.99
81704;BME280;71117;52.352;4.808;2023-10-08T07:25:51;102663.56;;;16.39;72.04
81704;BME280;71117;52.352;4.808;2023-10-08T07:28:20;102654.66;;;16.38;72.83
81704;BME280;71117;52.352;4.808;2023-10-08T07:30:46;102661.59;;;16.32;72.65
81704;BME280;71117;52.352;4.808;2023-10-08T07:33:13;102676.19;;;16.46;72.61
81704;BME280;71117;52.352;4.808;2023-10-08T07:35:47;102689.88;;;16.61;72.48
81704;BME280;71117;52.352;4.808;2023-10-08T07:38:43;102700.44;;;16.58;72.06
81704;BME280;71117;52.352;4.808;2023-10-08T07:41:11;102689.75;;;16.57;72.27
81704;BME280;71117;52.352;4.808;2023-10-08T07:43:41;102690.97;;;16.71;72.15
81704;BME280;71117;52.352;4.808;2023-10-08T07:46:09;102690.09;;;16.71;71.98
81704;BME280;71117;52.352;4.808;2023-10-08T07:48:36;102697.88;;;16.61;72.20
81704;BME280;71117;52.352;4.808;2023-10-08T07:51:03;102690.78;;;16.63;71.79
81704;BME280;71117;52.352;4.808;2023-10-08T07:53:28;102688.38;;;16.73;71.67
81704;BME280;71117;52.352;4.808;2023-10-08T07:56:04;102689.78;;;16.58;71.84
81704;BME280;71117;52.352;4.808;2023-10-08T07:58:35;102699.72;;;16.65;71.60
81704;BME280;71117;52.352;4.808;2023-10-08T08:01:06;102696.41;;;16.76;71.47
81704;BME280;71117;52.352;4.808;2023-10-08T08:03:33;102700.31;;;16.90;71.00
81704;BME280;71117;52.352;4.808;2023-10-08T08:06:00;102701.34;;;16.98;70.37
81704;BME280;71117;52.352;4.808;2023-10-08T08:08:26;102707.81;;;17.09;70.70
81704;BME280;71117;52.352;4.808;2023-10-08T08:10:52;102718.50;;;17.09;70.19
81704;BME280;71117;52.352;4.808;2023-10-08T08:13:28;102726.38;;;17.03;69.92
81704;BME280;71117;52.352;4.808;2023-10-08T08:15:55;102747.22;;;17.21;69.44
81704;BME280;71117;52.352;4.808;2023-10-08T08:18:24;102744.41;;;17.13;69.71
81704;BME280;71117;52.352;4.808;2023-10-08T08:20:50;102736.28;;;17.09;69.36
81704;BME280;71117;52.352;4.808;2023-10-08T08:23:15;102741.19;;;17.30;68.79
81704;BME280;71117;52.352;4.808;2023-10-08T08:25:42;102739.53;;;17.36;68.86
81704;BME280;71117;52.352;4.808;2023-10-08T08:28:26;102736.78;;;17.33;68.52
81704;BME280;71117;52.352;4.808;2023-10-08T08:30:54;102737.09;;;17.49;69.29
81704;BME280;71117;52.352;4.808;2023-10-08T08:33:21;102734.19;;;17.38;68.39
81704;BME280;71117;52.352;4.808;2023-10-08T08:36:02;102734.97;;;17.31;68.91
81704;BME280;71117;52.352;4.808;2023-10-08T08:38:30;102732.31;;;17.32;68.28
81704;BME280;71117;52.352;4.808;2023-10-08T08:41:06;102734.09;;;17.32;67.92
81704;BME280;71117;52.352;4.808;2023-10-08T08:43:35;102732.41;;;17.37;68.78
81704;BME280;71117;52.352;4.808;2023-10-08T08:46:04;102732.63;;;17.48;67.73
81704;BME280;71117;52.352;4.808;2023-10-08T08:48:36;102728.88;;;17.39;68.42
81704;BME280;71117;52.352;4.808;2023-10-08T08:51:03;102730.72;;;17.40;68.34
81704;BME280;71117;52.352;4.808;2023-10-08T08:53:32;102729.03;;;17.45;68.48
81704;BME280;71117;52.352;4.808;2023-10-08T08:55:58;102712.59;;;17.26;67.94
81704;BME280;71117;52.352;4.808;2023-10-08T08:58:25;102715.78;;;17.52;67.45
81704;BME280;71117;52.352;4.808;2023-10-08T09:00:52;102718.50;;;17.55;67.98
81704;BME280;71117;52.352;4.808;2023-10-08T09:03:18;102723.47;;;17.80;67.55
81704;BME280;71117;52.352;4.808;2023-10-08T09:05:44;102730.72;;;17.87;66.72
81704;BME280;71117;52.352;4.808;2023-10-08T09:08:15;102728.25;;;18.00;66.39
81704;BME280;71117;52.352;4.808;2023-10-08T09:10:43;102723.34;;;18.26;65.78
81704;BME280;71117;52.352;4.808;2023-10-08T09:13:20;102730.25;;;18.11;66.12
81704;BME280;71117;52.352;4.808;2023-10-08T09:15:52;102742.72;;;18.11;65.86
81704;BME280;71117;52.352;4.808;2023-10-08T09:18:23;102747.22;;;18.13;64.87
81704;BME280;71117;52.352;4.808;2023-10-08T09:20:49;102741.88;;;18.13;64.86
81704;BME280;71117;52.352;4.808;2023-10-08T09:23:16;102729.13;;;18.53;64.79
81704;BME280;71117;52.352;4.808;2023-10-08T09:25:46;102731.03;;;18.60;63.40
81704;BME280;71117;52.352;4.808;2023-10-08T09:28:27;102731.28;;;18.77;61.80
81704;BME280;71117;52.352;4.808;2023-10-08T09:30:54;102728.03;;;19.01;61.84
81704;BME280;71117;52.352;4.808;2023-10-08T09:33:23;102728.25;;;19.16;61.93
81704;BME280;71117;52.352;4.808;2023-10-08T09:35:51;102732.66;;;19.11;63.24
81704;BME280;71117;52.352;4.808;2023-10-08T09:38:21;102741.28;;;19.59;61.49
81704;BME280;71117;52.352;4.808;2023-10-08T09:40:49;102739.34;;;19.50;59.83
81704;BME280;71117;52.352;4.808;2023-10-08T09:43:15;102727.56;;;19.34;60.25
81704;BME280;71117;52.352;4.808;2023-10-08T09:45:53;102734.00;;;19.48;59.59
81704;BME280;71117;52.352;4.808;2023-10-08T09:48:23;102729.72;;;19.64;59.43
81704;BME280;71117;52.352;4.808;2023-10-08T09:50:52;102730.75;;;19.80;59.70
81704;BME280;71117;52.352;4.808;2023-10-08T09:53:24;102731.47;;;19.61;59.39
81704;BME280;71117;52.352;4.808;2023-10-08T09:55:57;102724.94;;;19.40;59.50
81704;BME280;71117;52.352;4.808;2023-10-08T09:58:24;102729.69;;;19.60;60.42
81704;BME280;71117;52.352;4.808;2023-10-08T10:00:52;102725.41;;;19.80;60.39
81704;BME280;71117;52.352;4.808;2023-10-08T10:03:19;102726.34;;;19.84;59.29
81704;BME280;71117;52.352;4.808;2023-10-08T10:05:48;102726.50;;;20.02;58.85
81704;BME280;71117;52.352;4.808;2023-10-08T10:08:14;102723.91;;;20.14;59.37
81704;BME280;71117;52.352;4.808;2023-10-08T10:10:40;102724.13;;;20.39;58.41
81704;BME280;71117;52.352;4.808;2023-10-08T10:13:12;102732.16;;;20.37;57.33
81704;BME280;71117;52.352;4.808;2023-10-08T10:15:38;102738.75;;;20.85;55.48
81704;BME280;71117;52.352;4.808;2023-10-08T10:18:15;102737.91;;;20.94;56.58
81704;BME280;71117;52.352;4.808;2023-10-08T10:20:52;102744.22;;;21.02;56.02
81704;BME280;71117;52.352;4.808;2023-10-08T10:23:47;102751.31;;;20.91;55.89
81704;BME280;71117;52.352;4.808;2023-10-08T10:31:32;102725.50;;;21.23;56.46
81704;BME280;71117;52.352;4.808;2023-10-08T10:34:07;102719.34;;;21.53;53.89
81704;BME280;71117;52.352;4.808;2023-10-08T10:36:34;102717.59;;;21.78;53.86
81704;BME280;71117;52.352;4.808;2023-10-08T10:39:00;102715.72;;;21.33;55.10
81704;BME280;71117;52.352;4.808;2023-10-08T10:41:25;102712.88;;;20.99;55.58
81704;BME280;71117;52.352;4.808;2023-10-08T10:43:52;102731.56;;;20.76;56.33
81704;BME280;71117;52.352;4.808;2023-10-08T10:46:18;102729.81;;;20.86;56.27
81704;BME280;71117;52.352;4.808;2023-10-08T10:48:56;102730.03;;;21.30;56.58
81704;BME280;71117;52.352;4.808;2023-10-08T10:51:45;102721.09;;;21.34;55.04
81704;BME280;71117;52.352;4.808;2023-10-08T10:54:12;102725.56;;;21.34;56.58
81704;BME280;71117;52.352;4.808;2023-10-08T10:56:45;102721.91;;;21.23;56.53
81704;BME280;71117;52.352;4.808;2023-10-08T10:59:13;102727.19;;;20.94;56.07
81704;BME280;71117;52.352;4.808;2023-10-08T11:01:48;102736.06;;;20.82;57.76
81704;BME280;71117;52.352;4.808;2023-10-08T11:04:18;102726.09;;;20.63;57.72
81704;BME280;71117;52.352;4.808;2023-10-08T11:06:49;102729.63;;;20.54;58.81
81704;BME280;71117;52.352;4.808;2023-10-08T11:09:16;102730.50;;;20.53;57.90
81704;BME280;71117;52.352;4.808;2023-10-08T11:11:43;102728.91;;;20.84;59.35
81704;BME280;71117;52.352;4.808;2023-10-08T11:14:16;102720.94;;;20.99;58.68
81704;BME280;71117;52.352;4.808;2023-10-08T11:16:45;102728.81;;;20.67;57.86
81704;BME280;71117;52.352;4.808;2023-10-08T11:19:11;102728.66;;;20.47;59.08
81704;BME280;71117;52.352;4.808;2023-10-08T11:21:51;102722.50;;;20.64;58.40
81704;BME280;71117;52.352;4.808;2023-10-08T11:24:29;102720.81;;;20.76;57.18
81704;BME280;71117;52.352;4.808;2023-10-08T11:26:55;102720.84;;;20.84;58.04
81704;BME280;71117;52.352;4.808;2023-10-08T11:29:36;102717.28;;;20.82;57.65
81704;BME280;71117;52.352;4.808;2023-10-08T11:32:04;102719.03;;;20.78;57.99
81704;BME280;71117;52.352;4.808;2023-10-08T11:34:32;102710.09;;;20.76;58.35
81704;BME280;71117;52.352;4.808;2023-10-08T11:37:03;102712.63;;;20.56;58.17
81704;BME280;71117;52.352;4.808;2023-10-08T11:39:39;102711.63;;;20.44;58.25
81704;BME280;71117;52.352;4.808;2023-10-08T11:42:10;102700.81;;;20.33;58.96
81704;BME280;71117;52.352;4.808;2023-10-08T11:45:02;102684.84;;;20.47;59.17
81704;BME280;71117;52.352;4.808;2023-10-08T11:47:46;102678.63;;;20.58;59.83
81704;BME280;71117;52.352;4.808;2023-10-08T11:50:16;102678.47;;;20.34;59.20
81704;BME280;71117;52.352;4.808;2023-10-08T11:52:44;102668.66;;;20.42;59.13
81704;BME280;71117;52.352;4.808;2023-10-08T11:55:10;102668.78;;;20.56;58.39
81704;BME280;71117;52.352;4.808;2023-10-08T11:57:42;102665.00;;;20.26;60.43
81704;BME280;71117;52.352;4.808;2023-10-08T12:00:12;102657.81;;;20.22;60.46
81704;BME280;71117;52.352;4.808;2023-10-08T12:02:48;102660.56;;;20.33;59.66
81704;BME280;71117;52.352;4.808;2023-10-08T12:05:13;102657.81;;;20.22;60.45
81704;BME280;71117;52.352;4.808;2023-10-08T12:07:49;102658.66;;;20.17;60.38
81704;BME280;71117;52.352;4.808;2023-10-08T12:10:19;102652.56;;;20.39;59.69
81704;BME280;71117;52.352;4.808;2023-10-08T12:12:51;102651.44;;;20.03;60.25
81704;BME280;71117;52.352;4.808;2023-10-08T12:15:18;102644.16;;;19.89;61.41
81704;BME280;71117;52.352;4.808;2023-10-08T12:17:48;102649.66;;;20.04;61.15
81704;BME280;71117;52.352;4.808;2023-10-08T12:20:32;102633.63;;;20.15;61.82
81704;BME280;71117;52.352;4.808;2023-10-08T12:22:59;102636.34;;;20.22;60.67
81704;BME280;71117;52.352;4.808;2023-10-08T12:25:25;102622.91;;;20.15;60.77
81704;BME280;71117;52.352;4.808;2023-10-08T12:27:50;102622.16;;;20.39;59.76
81704;BME280;71117;52.352;4.808;2023-10-08T12:30:15;102615.19;;;20.74;60.17
81704;BME280;71117;52.352;4.808;2023-10-08T12:32:40;102614.31;;;20.84;59.72
81704;BME280;71117;52.352;4.808;2023-10-08T12:35:10;102615.19;;;20.79;59.83
81704;BME280;71117;52.352;4.808;2023-10-08T12:37:39;102608.91;;;20.72;59.16
81704;BME280;71117;52.352;4.808;2023-10-08T12:40:06;102610.75;;;20.93;59.20
81704;BME280;71117;52.352;4.808;2023-10-08T12:42:37;102610.72;;;20.73;58.97
81704;BME280;71117;52.352;4.808;2023-10-08T12:45:09;102610.75;;;20.85;58.94
81704;BME280;71117;52.352;4.808;2023-10-08T12:47:38;102616.06;;;20.73;58.63
81704;BME280;71117;52.352;4.808;2023-10-08T12:50:04;102613.44;;;20.89;58.87
81704;BME280;71117;52.352;4.808;2023-10-08T12:52:33;102611.63;;;20.78;59.42
81704;BME280;71117;52.352;4.808;2023-10-08T12:55:00;102621.34;;;20.52;60.53
81704;BME280;71117;52.352;4.808;2023-10-08T12:57:30;102615.19;;;20.73;60.15
81704;BME280;71117;52.352;4.808;2023-10-08T12:59:59;102610.72;;;20.76;60.60
81704;BME280;71117;52.352;4.808;2023-10-08T13:02:24;102606.28;;;20.84;60.40
81704;BME280;71117;52.352;4.808;2023-10-08T13:04:54;102599.88;;;20.53;60.37
81704;BME280;71117;52.352;4.808;2023-10-08T13:07:20;102610.59;;;20.49;61.43
81704;BME280;71117;52.352;4.808;2023-10-08T13:09:47;102616.75;;;20.32;61.86
81704;BME280;71117;52.352;4.808;2023-10-08T13:12:13;102612.25;;;20.30;61.58
81704;BME280;71117;52.352;4.808;2023-10-08T13:14:41;102617.59;;;20.28;61.69
81704;BME280;71117;52.352;4.808;2023-10-08T13:17:06;102620.34;;;20.39;62.10
81704;BME280;71117;52.352;4.808;2023-10-08T13:19:39;102616.03;;;20.59;61.71
81704;BME280;71117;52.352;4.808;2023-10-08T13:22:04;102619.59;;;20.55;61.81